Barnham, United Kingdom
Current Conditions -  °F | °C
As of 9:50 AM on Wednesday 26 Nov 2014 (Local Time) from EGKA Reporting Station
Moderate Fog Moderate Fog  
Wind Chill:   Ceiling: 100
Heat Index:   Visibility: 0.56mi
Dew Point:   Wind: 8mph
Humidity: 100%   Direction: 360°N
Pressure: 29.85"   Gusts: NA
Location:  50.83°N, 0.64°W
Report Text: EGKA 260950Z 36007KT 0900 FG BKN001 08/08 Q1011
Loading
Personal Weather Stations






























Interactive Weather Map New forecast layout! Learn more

10-Day Weather Forecast

Advertisements
Track Severe Weather on mobile